Lenoir, NC (28645)

2:40 PM EDT on August 18, 2017 (GMT -0400)
Highland Ave | | Change Station

Elev 1128 ft 35.91 °N, 81.53 °W | Updated 9 seconds ago

Partly Cloudy
Partly Cloudy
89.4 °F
Feels Like 98 °F
N
1.2
Wind Variable Wind from West
Gusts 1.2 mph

Today
High -- | Low -- °F
--% Chance of Precip.
Yesterday
High -- | Low -- °F
Precip. -- in
Pressure 29.96 in
Visibility 10.0 miles
Clouds Clear
Heat Index 98 °F
Dew Point 74 °F
Humidity 60%
Rainfall 0.00 in
Snow Depth Not available.
6:47 AM 8:11 PM
Waning Crescent, 12% visible
METAR KMRN 181830Z AUTO 23004KT 10SM CLR 30/21 A2996 RMK AO2 T03030209
Pressure 29.96 in
Visibility 10.0 miles
Clouds Clear
Heat Index 98 °F
Dew Point 74 °F
Humidity 60%
Rainfall 0.00 in
Snow Depth Not available.
6:47 AM 8:11 PM
Waning Crescent, 12% visible
METAR KMRN 181830Z AUTO 23004KT 10SM CLR 30/21 A2996 RMK AO2 T03030209

Get Severe Weather Alerts

Thanks for signing up!

Be on the lookout for a verification email in your inbox.

You'll start receiving the daily forecast at 6 AM.

×

10-Day Weather Forecast

Almanac

Astronomy

Aug. 18, 2017 Rise Set
Actual Time
Civil Twilight
Nautical Twilight
Astronomical Twilight
Moon
Length of Visible Light
Length of Day
Tomorrow will be .
, % of the Moon is Illuminated

Today's Extremes

State Highs State Lows

Community

WunderPhotos

Category 6

Welcome to Category 6. This is the collective home for Weather Underground's featured writeups by Dr. Jeff Masters (right), Bob Henson (left), Chris Burt, and other regular contributors.

Nearby

Air Quality

  Air Quality AQ Index Pollutant
Not available.

Snow Depth

Station Depth Elevation

Earthquake Activity

City Distance Mag. Time & Date
Minimum magnitude displayed is 2.5.

Coastal Water Temperatures

Place Temperature

Stations

Nearby Weather Stations

Station Location Temp. Windchill Dew Point Humidity Wind Precip. Elev Updated Type
                   

Watches & Warnings

There are currently no watches in effect.